Time;durP1;ratioP1;P1;durP2;ratioP2;P2;SDS_P1;SDS_P2;PMS_P1;PMS_P2;Temp;Humidity;BMP_temperature;BMP_pressure;BME280_temperature;BME280_humidity;BME280_pressure;Samples;Min_cycle;Max_cycle;Signal;HPM_P1;HPM_P2
2022/07/21 00:00:41;;;;;;;61.20;50.80;;;26.00;56.70;;;;;;4997918;27;97910;-68
2022/07/21 00:03:07;;;;;;;61.58;50.97;;;26.00;56.70;;;;;;4996522;27;96844;-69
2022/07/21 00:05:33;;;;;;;60.70;50.72;;;25.90;56.70;;;;;;4993194;27;96279;-69
2022/07/21 00:07:58;;;;;;;61.00;50.63;;;26.00;56.80;;;;;;4965972;27;101287;-68
2022/07/21 00:10:25;;;;;;;60.90;50.72;;;26.00;56.70;;;;;;4994470;27;95466;-69
2022/07/21 00:12:52;;;;;;;63.47;50.97;;;26.00;56.70;;;;;;4992746;27;97924;-68
2022/07/21 00:15:19;;;;;;;61.25;50.97;;;26.00;56.80;;;;;;4961166;27;99091;-68
2022/07/21 00:17:45;;;;;;;61.55;50.92;;;26.00;56.70;;;;;;4994411;27;96232;-68
2022/07/21 00:20:13;;;;;;;60.72;50.60;;;26.00;56.70;;;;;;4988016;27;96049;-69
2022/07/21 00:22:39;;;;;;;60.72;50.45;;;25.90;56.70;;;;;;4962797;27;101555;-68
2022/07/21 00:25:07;;;;;;;60.72;50.85;;;26.00;56.80;;;;;;4993338;27;94707;-70
2022/07/21 00:27:33;;;;;;;60.65;50.75;;;26.00;56.70;;;;;;4981356;27;100666;-69
2022/07/21 00:29:58;;;;;;;60.50;50.72;;;26.00;56.70;;;;;;4986761;27;96667;-68
2022/07/21 00:32:24;;;;;;;60.83;50.72;;;25.90;56.70;;;;;;4976966;27;96569;-68
2022/07/21 00:34:50;;;;;;;60.13;50.47;;;25.90;56.70;;;;;;4990602;27;95080;-68
2022/07/21 00:37:15;;;;;;;60.75;50.78;;;26.00;56.70;;;;;;4992410;27;96410;-68
2022/07/21 00:39:41;;;;;;;60.80;50.75;;;25.90;56.80;;;;;;4964328;27;99390;-68
2022/07/21 00:42:07;;;;;;;60.75;50.72;;;26.00;56.70;;;;;;4983191;27;95133;-68
2022/07/21 00:44:32;;;;;;;61.25;50.88;;;25.90;56.70;;;;;;4982720;27;99159;-69
2022/07/21 00:46:58;;;;;;;60.85;50.65;;;25.90;56.70;;;;;;4990365;27;102931;-69
2022/07/21 00:49:24;;;;;;;60.30;50.65;;;25.90;56.70;;;;;;5002513;27;100049;-68
2022/07/21 00:51:51;;;;;;;60.67;50.67;;;25.90;56.70;;;;;;4990719;27;95260;-68
2022/07/21 00:54:18;;;;;;;60.65;50.75;;;25.90;56.70;;;;;;4999914;27;101414;-69
2022/07/21 00:56:45;;;;;;;60.45;50.78;;;25.80;56.70;;;;;;5005838;27;96168;-69
2022/07/21 00:59:11;;;;;;;61.38;50.80;;;25.90;56.80;;;;;;4977931;27;99176;-68
2022/07/21 01:01:37;;;;;;;60.35;50.65;;;25.90;56.70;;;;;;4989207;27;96247;-68
2022/07/21 01:04:03;;;;;;;60.85;50.72;;;25.90;56.70;;;;;;4969770;27;102543;-68
2022/07/21 01:06:28;;;;;;;60.50;50.67;;;25.80;56.70;;;;;;4988456;27;95004;-69
2022/07/21 01:08:56;;;;;;;60.13;50.65;;;25.90;56.70;;;;;;4994925;27;98379;-69
2022/07/21 01:11:24;;;;;;;60.25;50.53;;;25.90;56.70;;;;;;4983539;27;98408;-68
2022/07/21 01:13:50;;;;;;;60.42;50.53;;;25.90;56.70;;;;;;4968640;27;98581;-69
2022/07/21 01:16:16;;;;;;;60.88;50.45;;;25.90;56.70;;;;;;4990960;27;99703;-68
2022/07/21 01:18:42;;;;;;;61.30;50.97;;;25.90;56.70;;;;;;4986593;27;96371;-69
2022/07/21 01:21:33;;;;;;;60.42;50.63;;;25.90;56.90;;;;;;4992393;27;96547;-68
2022/07/21 01:23:59;;;;;;;60.17;50.40;;;25.90;56.80;;;;;;4987955;27;96667;-69
2022/07/21 01:26:25;;;;;;;60.55;50.70;;;25.90;56.70;;;;;;4993562;27;96263;-68
2022/07/21 01:28:51;;;;;;;61.15;50.65;;;25.80;56.70;;;;;;4959712;27;101882;-69
2022/07/21 01:31:17;;;;;;;61.40;50.95;;;25.80;56.80;;;;;;4989967;27;99654;-69
2022/07/21 01:33:43;;;;;;;60.80;50.60;;;25.80;56.70;;;;;;4994252;27;100969;-68
2022/07/21 01:36:09;;;;;;;61.10;50.70;;;25.80;56.70;;;;;;4993653;27;94070;-69
2022/07/21 01:41:32;;;;;;;60.60;50.67;;;25.80;56.80;;;;;;4990916;27;96210;-68
2022/07/21 01:44:00;;;;;;;60.88;50.60;;;25.80;56.70;;;;;;4995999;27;96128;-69
2022/07/21 01:46:29;;;;;;;60.80;50.78;;;25.80;56.70;;;;;;4995972;27;95757;-68
2022/07/21 01:48:55;;;;;;;61.00;50.72;;;25.80;56.70;;;;;;4991475;27;100952;-69
2022/07/21 01:51:20;;;;;;;60.95;50.60;;;25.80;56.80;;;;;;4994020;27;97680;-69
2022/07/21 01:53:46;;;;;;;60.47;50.67;;;25.80;56.70;;;;;;5001507;27;99709;-69
2022/07/21 01:56:12;;;;;;;60.60;50.60;;;25.80;56.70;;;;;;4978172;27;100910;-68
2022/07/21 01:58:37;;;;;;;60.45;50.65;;;25.80;56.70;;;;;;5011492;27;95113;-69
2022/07/21 02:01:04;;;;;;;60.53;50.63;;;25.80;56.70;;;;;;5001679;27;96153;-69
2022/07/21 02:03:29;;;;;;;61.25;50.65;;;25.80;56.70;;;;;;4987209;27;100990;-69
2022/07/21 02:06:05;;;;;;;60.55;50.58;;;25.80;56.60;;;;;;5012003;27;95046;-69
2022/07/21 02:08:31;;;;;;;60.83;50.75;;;25.80;56.70;;;;;;4985595;27;95762;-69
2022/07/21 02:10:58;;;;;;;62.53;50.70;;;25.80;56.70;;;;;;4996144;27;99849;-69
2022/07/21 02:13:24;;;;;;;60.80;50.75;;;25.80;56.70;;;;;;4999278;27;95510;-69
2022/07/21 02:15:50;;;;;;;61.08;50.85;;;25.80;56.80;;;;;;4984107;27;96998;-69
2022/07/21 02:18:15;;;;;;;60.65;50.63;;;25.80;56.80;;;;;;4984509;27;96975;-69
2022/07/21 02:20:41;;;;;;;60.75;50.55;;;25.80;56.70;;;;;;4993103;27;95569;-69
2022/07/21 02:23:07;;;;;;;61.03;51.03;;;25.80;56.70;;;;;;5000165;27;95083;-68
2022/07/21 02:25:32;;;;;;;60.95;50.83;;;25.80;56.60;;;;;;4996912;27;95000;-68
2022/07/21 02:27:58;;;;;;;61.35;50.92;;;25.80;56.70;;;;;;4987412;27;101573;-68
2022/07/21 02:30:24;;;;;;;60.55;50.92;;;25.80;56.50;;;;;;4980160;27;95181;-69
2022/07/21 02:32:49;;;;;;;61.10;50.90;;;25.80;56.60;;;;;;5006363;27;96247;-68
2022/07/21 02:35:15;;;;;;;61.10;50.88;;;25.80;56.60;;;;;;4998323;27;96291;-68
2022/07/21 02:37:41;;;;;;;60.60;50.60;;;25.80;56.70;;;;;;4996892;27;96773;-68
2022/07/21 02:40:07;;;;;;;61.20;51.20;;;25.80;56.60;;;;;;4993766;27;95870;-67
2022/07/21 02:42:33;;;;;;;60.90;50.78;;;25.70;56.60;;;;;;4985765;27;96701;-68
2022/07/21 02:44:58;;;;;;;60.83;50.72;;;25.80;56.70;;;;;;4999024;27;95416;-68
2022/07/21 02:47:24;;;;;;;61.42;51.13;;;25.80;56.50;;;;;;4997895;27;96053;-68
2022/07/21 02:49:49;;;;;;;61.13;51.05;;;25.80;56.40;;;;;;5007207;27;97499;-68
2022/07/21 02:52:15;;;;;;;61.33;51.25;;;25.70;56.50;;;;;;4999519;27;96114;-68
2022/07/21 02:54:41;;;;;;;61.20;50.70;;;25.70;56.50;;;;;;4976366;27;97007;-68
2022/07/21 02:57:06;;;;;;;60.80;51.17;;;25.70;56.60;;;;;;5003719;27;96245;-68
2022/07/21 02:59:32;;;;;;;61.00;50.90;;;25.70;56.40;;;;;;4992191;27;95155;-68
2022/07/21 03:01:58;;;;;;;60.90;50.85;;;25.70;56.60;;;;;;4994193;27;96089;-68
2022/07/21 03:04:23;;;;;;;60.42;50.55;;;25.70;56.60;;;;;;4995210;27;99935;-68
2022/07/21 03:06:49;;;;;;;60.65;50.85;;;25.70;56.50;;;;;;4999580;27;94891;-68
2022/07/21 03:09:14;;;;;;;61.13;51.00;;;25.70;56.50;;;;;;4998581;27;103689;-68
2022/07/21 03:11:40;;;;;;;60.22;50.70;;;25.70;56.50;;;;;;4992500;27;95263;-68
2022/07/21 03:14:05;;;;;;;60.63;50.83;;;25.80;56.60;;;;;;4983762;27;105054;-68
2022/07/21 03:16:31;;;;;;;61.13;50.92;;;25.70;56.50;;;;;;5006120;27;95168;-68
2022/07/21 03:18:57;;;;;;;61.08;50.95;;;25.70;56.50;;;;;;5002134;27;95702;-68
2022/07/21 03:21:23;;;;;;;60.67;50.95;;;25.70;56.40;;;;;;4989419;27;102751;-68
2022/07/21 03:23:48;;;;;;;60.95;51.22;;;25.70;56.50;;;;;;4991212;27;103549;-68
2022/07/21 03:26:15;;;;;;;60.40;50.75;;;25.70;56.50;;;;;;4998874;27;95088;-69
2022/07/21 03:28:42;;;;;;;61.25;51.03;;;25.70;56.50;;;;;;4985468;27;99556;-68
2022/07/21 03:31:08;;;;;;;61.05;51.15;;;25.70;56.50;;;;;;4997240;27;95597;-68
2022/07/21 03:33:34;;;;;;;61.38;51.05;;;25.70;56.50;;;;;;4985098;27;100709;-68
2022/07/21 03:35:59;;;;;;;61.17;50.97;;;25.70;56.30;;;;;;4982594;27;96426;-68
2022/07/21 03:38:25;;;;;;;61.28;50.95;;;25.70;56.30;;;;;;5013822;27;93952;-68
2022/07/21 03:40:52;;;;;;;60.85;50.80;;;25.70;56.50;;;;;;5005942;27;95769;-68
2022/07/21 03:43:18;;;;;;;61.28;51.13;;;25.70;56.50;;;;;;4992772;27;97427;-68
2022/07/21 03:45:43;;;;;;;60.90;51.05;;;25.70;57.10;;;;;;5006927;27;100796;-68
2022/07/21 03:48:10;;;;;;;60.40;50.83;;;25.70;56.50;;;;;;4982502;27;95104;-68
2022/07/21 03:50:37;;;;;;;60.75;50.78;;;25.70;56.60;;;;;;4993417;27;96033;-69
2022/07/21 03:53:03;;;;;;;61.13;51.10;;;25.70;56.50;;;;;;5008401;27;94989;-67
2022/07/21 03:55:29;;;;;;;61.03;50.83;;;25.70;56.50;;;;;;4999933;27;94763;-68
2022/07/21 03:57:58;;;;;;;60.83;51.20;;;25.70;56.50;;;;;;4996508;27;95454;-68
2022/07/21 04:00:29;;;;;;;60.83;50.90;;;25.70;56.50;;;;;;4984866;27;95258;-68
2022/07/21 04:02:55;;;;;;;;;;;25.70;56.60;;;;;;4995613;27;101504;-68
2022/07/21 04:05:21;;;;;;;61.30;51.28;;;25.70;57.00;;;;;;4991299;27;98907;-68
2022/07/21 04:07:49;;;;;;;60.58;50.90;;;25.70;56.40;;;;;;5006100;27;94901;-69
2022/07/21 04:10:17;;;;;;;60.78;51.05;;;25.70;56.50;;;;;;5000235;27;96584;-68
2022/07/21 04:12:43;;;;;;;61.35;51.35;;;25.70;56.40;;;;;;4994901;27;96580;-68
2022/07/21 04:15:10;;;;;;;60.92;51.40;;;25.70;56.40;;;;;;4992804;27;94769;-68
2022/07/21 04:17:37;;;;;;;60.60;50.97;;;25.70;56.40;;;;;;5003391;27;95714;-68
2022/07/21 04:20:03;;;;;;;61.42;51.42;;;25.70;57.10;;;;;;4982697;27;101037;-68
2022/07/21 04:22:29;;;;;;;61.47;51.17;;;25.70;56.50;;;;;;5000703;27;96250;-68
2022/07/21 04:24:55;;;;;;;60.92;51.33;;;25.70;56.50;;;;;;4998113;27;96096;-68
2022/07/21 04:27:20;;;;;;;61.90;51.22;;;25.70;56.40;;;;;;4987577;27;97876;-68
2022/07/21 04:29:46;;;;;;;61.40;51.47;;;25.70;56.40;;;;;;4995217;27;100919;-67
2022/07/21 04:32:12;;;;;;;61.05;51.45;;;25.70;56.50;;;;;;4992357;27;94643;-68
2022/07/21 04:34:37;;;;;;;61.35;51.55;;;25.60;56.30;;;;;;4983141;27;97305;-68
2022/07/21 04:37:03;;;;;;;63.33;52.33;;;25.60;56.40;;;;;;4968528;27;95012;-68
2022/07/21 04:39:29;;;;;;;61.90;52.03;;;25.70;56.20;;;;;;5001456;27;98922;-68
2022/07/21 04:41:55;;;;;;;61.20;51.50;;;25.70;56.40;;;;;;4998035;27;100959;-68
2022/07/21 04:44:21;;;;;;;61.45;51.90;;;25.60;56.30;;;;;;4984238;27;96611;-68
2022/07/21 04:46:46;;;;;;;61.65;51.58;;;25.70;56.30;;;;;;4988826;27;97529;-69
2022/07/21 04:49:12;;;;;;;61.78;51.70;;;25.70;56.40;;;;;;4978593;27;96589;-68
2022/07/21 04:51:38;;;;;;;61.05;51.05;;;25.70;56.40;;;;;;4978548;27;99383;-68
2022/07/21 04:54:04;;;;;;;61.47;51.83;;;25.60;56.30;;;;;;4985855;27;95275;-68
2022/07/21 04:56:30;;;;;;;61.95;51.92;;;25.70;56.30;;;;;;4995846;27;95032;-69
2022/07/21 04:58:56;;;;;;;62.03;52.47;;;25.70;56.20;;;;;;4978936;27;98139;-68
2022/07/21 05:01:21;;;;;;;61.85;51.80;;;25.60;56.20;;;;;;4998138;27;97890;-68
2022/07/21 05:03:47;;;;;;;62.95;51.42;;;25.70;56.30;;;;;;4985107;27;97419;-68
2022/07/21 05:06:13;;;;;;;61.60;52.00;;;25.70;56.40;;;;;;4994512;27;96093;-68
2022/07/21 05:08:38;;;;;;;61.83;52.15;;;25.60;56.30;;;;;;4993329;27;96602;-68
2022/07/21 05:11:04;;;;;;;62.20;51.85;;;25.70;56.30;;;;;;4992211;27;96397;-68
2022/07/21 05:13:30;;;;;;;60.85;51.22;;;25.60;56.20;;;;;;5011507;27;95133;-68
2022/07/21 05:15:55;;;;;;;62.60;52.20;;;25.60;56.30;;;;;;4985731;27;96827;-68
2022/07/21 05:18:21;;;;;;;61.97;51.55;;;25.60;56.30;;;;;;4984137;27;95025;-68
2022/07/21 05:20:46;;;;;;;61.30;51.47;;;25.70;56.40;;;;;;4975909;27;100515;-68
2022/07/21 05:23:12;;;;;;;62.33;52.28;;;25.70;56.40;;;;;;4999210;27;97185;-68
2022/07/21 05:25:38;;;;;;;61.58;51.67;;;25.70;56.20;;;;;;4992694;27;95480;-69
2022/07/21 05:28:05;;;;;;;62.75;52.92;;;25.60;56.20;;;;;;4979500;27;96174;-68
2022/07/21 05:30:31;;;;;;;61.85;52.03;;;25.60;56.10;;;;;;4970502;27;96825;-68
2022/07/21 05:32:57;;;;;;;61.83;51.50;;;25.60;56.40;;;;;;4963158;27;95384;-68
2022/07/21 05:35:22;;;;;;;62.67;52.30;;;25.60;56.40;;;;;;5011920;27;94599;-68
2022/07/21 05:37:48;;;;;;;61.00;51.55;;;25.60;56.60;;;;;;5000060;27;96191;-68
2022/07/21 05:40:15;;;;;;;61.88;51.60;;;25.60;56.40;;;;;;4996151;27;97299;-68
2022/07/21 05:42:40;;;;;;;61.88;51.65;;;25.60;56.70;;;;;;4986372;27;95201;-68
2022/07/21 05:45:06;;;;;;;61.67;52.03;;;25.60;56.30;;;;;;4991831;27;100024;-68
2022/07/21 05:47:32;;;;;;;63.83;53.35;;;25.60;56.50;;;;;;4993158;27;97553;-68
2022/07/21 05:49:58;;;;;;;64.40;52.35;;;25.60;56.20;;;;;;4987314;27;96378;-68
2022/07/21 05:52:25;;;;;;;63.72;52.53;;;25.60;56.40;;;;;;4988900;27;95291;-68
2022/07/21 05:54:50;;;;;;;62.47;52.28;;;25.60;56.30;;;;;;4994548;27;95867;-68
2022/07/21 05:57:17;;;;;;;63.50;52.80;;;25.70;56.40;;;;;;4965748;27;101228;-68
2022/07/21 05:59:44;;;;;;;62.05;52.20;;;25.70;56.40;;;;;;4972927;27;103833;-68
2022/07/21 06:02:09;;;;;;;61.67;52.00;;;25.60;56.30;;;;;;5001066;27;95340;-68
2022/07/21 06:04:35;;;;;;;63.85;53.08;;;25.70;56.50;;;;;;5002421;27;94412;-68
2022/07/21 06:07:00;;;;;;;61.92;52.30;;;25.70;56.30;;;;;;4987083;27;98002;-68
2022/07/21 06:09:26;;;;;;;64.45;52.78;;;25.70;56.50;;;;;;4985989;27;97960;-68
2022/07/21 06:11:53;;;;;;;62.42;52.22;;;25.60;56.20;;;;;;4985506;27;95908;-68
2022/07/21 06:14:18;;;;;;;62.42;52.35;;;25.60;56.30;;;;;;5001100;27;94677;-67
2022/07/21 06:16:44;;;;;;;63.03;52.70;;;25.60;56.40;;;;;;5006186;27;96153;-68
2022/07/21 06:19:09;;;;;;;63.22;53.15;;;25.70;56.40;;;;;;4992142;27;96144;-68
2022/07/21 06:21:35;;;;;;;63.33;52.97;;;25.60;56.10;;;;;;4983061;27;98748;-69
2022/07/21 06:24:01;;;;;;;65.00;53.60;;;25.60;56.30;;;;;;4971766;27;96452;-68
2022/07/21 06:26:27;;;;;;;63.60;53.20;;;25.60;56.20;;;;;;5000135;27;97852;-68
2022/07/21 06:28:54;;;;;;;62.78;52.72;;;25.60;56.20;;;;;;4985819;27;99723;-68
2022/07/21 06:31:20;;;;;;;62.25;52.53;;;25.60;56.30;;;;;;4990614;27;96093;-69
2022/07/21 06:33:45;;;;;;;62.88;52.47;;;25.60;56.30;;;;;;5000607;27;94743;-69
2022/07/21 06:36:11;;;;;;;63.15;53.03;;;25.60;56.20;;;;;;4985248;27;99412;-68
2022/07/21 06:38:37;;;;;;;63.13;52.65;;;25.60;56.20;;;;;;4983722;27;95509;-69
2022/07/21 06:41:03;;;;;;;64.80;53.35;;;25.60;56.20;;;;;;4986217;27;94728;-68
2022/07/21 06:43:28;;;;;;;62.80;52.40;;;25.60;56.10;;;;;;4993034;27;103234;-68
2022/07/21 06:45:54;;;;;;;63.33;52.47;;;25.60;56.30;;;;;;4980144;27;95308;-68
2022/07/21 06:48:21;;;;;;;64.05;52.72;;;25.60;56.20;;;;;;4977599;27;96484;-68
2022/07/21 06:50:47;;;;;;;62.70;52.90;;;25.60;56.30;;;;;;4987068;27;94990;-68
2022/07/21 06:53:13;;;;;;;63.58;53.35;;;25.60;56.30;;;;;;4995420;27;94468;-68
2022/07/21 06:55:40;;;;;;;62.58;52.40;;;25.60;56.20;;;;;;4963321;27;98199;-68
2022/07/21 06:58:17;;;;;;;64.40;53.15;;;25.60;56.30;;;;;;4984511;27;98068;-69
2022/07/21 07:00:44;;;;;;;64.40;53.50;;;25.60;56.30;;;;;;4990520;27;95763;-68
2022/07/21 07:03:09;;;;;;;62.75;52.28;;;25.60;56.00;;;;;;4999014;27;95313;-69
2022/07/21 07:05:35;;;;;;;63.95;52.58;;;25.70;56.20;;;;;;4995048;27;97526;-68
2022/07/21 07:08:02;;;;;;;64.03;53.13;;;25.60;56.40;;;;;;4996742;27;96245;-68
2022/07/21 07:10:27;;;;;;;64.38;53.67;;;25.60;56.20;;;;;;4998756;27;95148;-69
2022/07/21 07:12:54;;;;;;;62.35;52.85;;;25.70;56.30;;;;;;4993775;27;95418;-68
2022/07/21 07:15:20;;;;;;;63.95;52.95;;;25.70;56.20;;;;;;4984028;27;96126;-69
2022/07/21 07:17:46;;;;;;;61.80;52.03;;;25.60;56.40;;;;;;4993538;27;95428;-67
2022/07/21 07:20:12;;;;;;;62.35;52.13;;;25.60;56.40;;;;;;4989062;27;96055;-68
2022/07/21 07:22:37;;;;;;;62.05;52.17;;;25.70;56.50;;;;;;4980007;27;95120;-68
2022/07/21 07:25:04;;;;;;;64.65;53.40;;;25.60;56.40;;;;;;4975456;27;99162;-69
2022/07/21 07:27:29;;;;;;;62.22;52.28;;;25.60;56.30;;;;;;5009985;27;97175;-68
2022/07/21 07:29:55;;;;;;;61.60;52.00;;;25.60;56.50;;;;;;5003474;27;95028;-68
2022/07/21 07:32:20;;;;;;;62.97;52.13;;;25.60;56.50;;;;;;4992709;27;98377;-68
2022/07/21 07:34:46;;;;;;;61.88;52.03;;;25.60;56.50;;;;;;4989683;27;96956;-69
2022/07/21 07:37:12;;;;;;;62.25;51.92;;;25.60;56.50;;;;;;4999109;27;96327;-68
2022/07/21 07:39:37;;;;;;;64.13;53.15;;;25.60;56.30;;;;;;4987172;27;95073;-69
2022/07/21 07:42:04;;;;;;;63.33;53.05;;;25.60;56.20;;;;;;4970353;27;94722;-66
2022/07/21 07:44:30;;;;;;;62.15;52.15;;;25.70;56.20;;;;;;4989686;27;96140;-68
2022/07/21 07:46:56;;;;;;;62.42;52.50;;;25.70;56.30;;;;;;5000501;27;96243;-68
2022/07/21 07:49:22;;;;;;;64.32;53.03;;;25.60;56.10;;;;;;4995062;27;95790;-67
2022/07/21 07:51:48;;;;;;;63.00;52.47;;;25.70;56.10;;;;;;4991805;27;95669;-68
2022/07/21 07:54:14;;;;;;;62.92;52.67;;;25.60;56.20;;;;;;4993070;27;95137;-67
2022/07/21 07:56:40;;;;;;;61.33;51.92;;;25.70;56.30;;;;;;4994658;27;97900;-68
2022/07/21 07:59:07;;;;;;;62.50;52.45;;;25.60;56.20;;;;;;4972488;27;96314;-68
2022/07/21 08:01:32;;;;;;;62.67;52.40;;;25.70;56.80;;;;;;4981725;27;100689;-68
2022/07/21 08:03:58;;;;;;;62.83;52.63;;;25.60;56.30;;;;;;4990608;27;98169;-67
2022/07/21 08:06:24;;;;;;;62.97;52.88;;;25.70;56.30;;;;;;4991079;27;97971;-67
2022/07/21 08:08:49;;;;;;;63.25;53.25;;;25.70;56.30;;;;;;5006854;27;96046;-67
2022/07/21 08:11:15;;;;;;;62.88;53.05;;;25.70;56.20;;;;;;4994095;27;95100;-68
2022/07/21 08:13:41;;;;;;;63.60;53.25;;;25.60;56.30;;;;;;4992340;27;98446;-68
2022/07/21 08:16:07;;;;;;;63.95;53.10;;;25.70;56.20;;;;;;4977674;27;96416;-68
2022/07/21 08:18:33;;;;;;;65.10;53.03;;;25.70;56.20;;;;;;4983895;27;96942;-68
2022/07/21 08:20:59;;;;;;;63.65;53.17;;;25.70;56.30;;;;;;4991891;27;98474;-68
2022/07/21 08:23:24;;;;;;;62.53;52.67;;;25.70;56.20;;;;;;4996662;27;96759;-68
2022/07/21 08:25:50;;;;;;;62.67;52.70;;;25.70;56.20;;;;;;5009744;27;96557;-68
2022/07/21 08:28:16;;;;;;;62.55;52.88;;;25.70;56.20;;;;;;4996807;27;94882;-68
2022/07/21 08:30:41;;;;;;;62.67;52.53;;;25.70;56.30;;;;;;4986758;27;102060;-67
2022/07/21 08:33:07;;;;;;;63.25;52.75;;;25.60;56.30;;;;;;4987948;27;97654;-65
2022/07/21 08:35:34;;;;;;;62.67;53.25;;;25.70;56.30;;;;;;4994984;27;94829;-68
2022/07/21 08:38:08;;;;;;;62.80;52.22;;;25.70;56.20;;;;;;4999630;27;96833;-68
2022/07/21 08:40:36;;;;;;;61.75;52.10;;;25.70;56.30;;;;;;4987501;27;95637;-69
2022/07/21 08:43:03;;;;;;;62.97;52.83;;;25.60;56.30;;;;;;4998834;27;98620;-67
2022/07/21 08:45:30;;;;;;;63.13;52.67;;;25.70;56.30;;;;;;4989430;27;97453;-68
2022/07/21 08:47:57;;;;;;;62.92;52.70;;;25.70;56.40;;;;;;4966050;27;94813;-67
2022/07/21 08:50:31;;;;;;;64.45;53.25;;;25.70;56.40;;;;;;4995066;27;98757;-68
2022/07/21 08:52:56;;;;;;;62.60;52.85;;;25.70;56.30;;;;;;4992707;27;104476;-69
2022/07/21 08:55:23;;;;;;;63.97;53.38;;;25.60;56.30;;;;;;4990002;27;95437;-68
2022/07/21 08:57:49;;;;;;;64.30;52.97;;;25.60;56.30;;;;;;4990185;27;101514;-68
2022/07/21 09:00:16;;;;;;;64.03;53.05;;;25.70;56.20;;;;;;4965705;27;96910;-68
2022/07/21 09:02:41;;;;;;;62.63;52.88;;;25.60;56.30;;;;;;4998227;27;98181;-69
2022/07/21 09:05:08;;;;;;;64.45;53.83;;;25.60;56.30;;;;;;4982792;27;97634;-68
2022/07/21 09:07:54;;;;;;;62.85;52.83;;;25.70;56.30;;;;;;4992604;27;95363;-68
2022/07/21 09:10:30;;;;;;;64.18;53.25;;;25.70;56.30;;;;;;4987334;27;96455;-68
2022/07/21 09:12:59;;;;;;;62.15;52.47;;;25.70;56.20;;;;;;4991103;27;96244;-68
2022/07/21 09:15:26;;;;;;;63.63;52.55;;;25.60;56.30;;;;;;4985280;27;95136;-68
2022/07/21 09:18:15;;;;;;;64.60;53.20;;;25.70;56.30;;;;;;4997791;27;96221;-67
2022/07/21 09:20:53;;;;;;;62.30;52.25;;;25.60;56.30;;;;;;4984867;27;94727;-68
2022/07/21 09:23:21;;;;;;;62.42;52.35;;;25.70;56.40;;;;;;4996302;27;98043;-68
2022/07/21 09:25:49;;;;;;;62.63;52.10;;;25.70;56.30;;;;;;5000789;27;96461;-68
2022/07/21 09:28:20;;;;;;;62.10;52.35;;;25.60;56.30;;;;;;4998285;27;95722;-68
2022/07/21 09:30:50;;;;;;;62.65;52.45;;;25.60;56.50;;;;;;4991194;27;99959;-68
2022/07/21 09:33:43;;;;;;;62.28;52.22;;;25.60;56.50;;;;;;4966177;27;97428;-68
2022/07/21 09:36:15;;;;;;;63.30;52.38;;;25.70;56.50;;;;;;4965679;27;96774;-68
2022/07/21 09:38:54;;;;;;;62.28;52.45;;;25.60;56.50;;;;;;4971132;27;95179;-68
2022/07/21 09:41:22;;;;;;;61.78;52.10;;;25.60;56.50;;;;;;5008433;27;96182;-68
2022/07/21 09:43:50;;;;;;;61.78;52.35;;;25.60;57.00;;;;;;5004398;27;96795;-68
2022/07/21 09:46:21;;;;;;;62.33;52.05;;;25.70;56.40;;;;;;4987519;27;95901;-68
2022/07/21 09:48:51;;;;;;;61.72;52.00;;;25.70;56.60;;;;;;4991797;27;95061;-68
2022/07/21 09:51:31;;;;;;;63.28;52.30;;;25.70;56.50;;;;;;4980120;27;96635;-67
2022/07/21 09:54:11;;;;;;;62.65;52.40;;;25.70;56.40;;;;;;5003820;27;98007;-68
2022/07/21 09:56:42;;;;;;;62.03;52.08;;;25.70;56.50;;;;;;4985835;27;102107;-68
2022/07/21 09:59:10;;;;;;;63.05;52.10;;;25.70;56.60;;;;;;4984269;27;95455;-67
2022/07/21 10:01:37;;;;;;;62.45;52.28;;;25.70;56.60;;;;;;4993197;27;95241;-67
2022/07/21 10:04:04;;;;;;;62.30;52.30;;;25.80;56.50;;;;;;4988008;27;102115;-66
2022/07/21 10:06:32;;;;;;;62.53;52.08;;;25.70;56.50;;;;;;4995272;27;101862;-67
2022/07/21 10:08:59;;;;;;;62.25;52.08;;;25.70;56.70;;;;;;4979796;27;98089;-66
2022/07/21 10:11:26;;;;;;;61.80;52.03;;;25.80;56.70;;;;;;4975545;27;97041;-68
2022/07/21 10:13:52;;;;;;;61.60;51.88;;;25.70;56.70;;;;;;4996635;27;101848;-67
2022/07/21 10:16:18;;;;;;;61.25;51.67;;;25.80;56.80;;;;;;4994197;27;95441;-68
2022/07/21 10:18:59;;;;;;;61.97;51.88;;;25.80;56.80;;;;;;5010948;27;96123;-68
2022/07/21 10:21:55;;;;;;;61.92;52.33;;;25.80;56.80;;;;;;4998689;27;95521;-68
2022/07/21 10:24:21;;;;;;;62.47;52.17;;;25.80;56.90;;;;;;4993362;27;95401;-67
2022/07/21 10:27:07;;;;;;;62.58;51.95;;;25.80;57.00;;;;;;4959147;27;97056;-68
2022/07/21 10:30:00;;;;;;;61.42;51.70;;;25.80;56.90;;;;;;4975865;27;102341;-67
2022/07/21 10:32:29;;;;;;;62.05;52.30;;;25.80;56.80;;;;;;4987993;27;96417;-68
2022/07/21 10:34:56;;;;;;;62.85;52.25;;;25.80;56.80;;;;;;4999307;27;100809;-70
2022/07/21 10:37:40;;;;;;;62.70;52.17;;;25.80;56.80;;;;;;5000396;27;93939;-68
2022/07/21 10:40:07;;;;;;;63.35;51.90;;;25.80;56.80;;;;;;4988433;27;95679;-68
2022/07/21 10:42:32;;;;;;;62.58;51.80;;;25.80;57.00;;;;;;4979481;27;95753;-68
2022/07/21 10:44:58;;;;;;;61.90;52.03;;;25.80;57.00;;;;;;4992987;27;106448;-68
2022/07/21 10:47:30;;;;;;;62.28;52.13;;;25.90;57.00;;;;;;5005122;27;99321;-68
2022/07/21 10:50:04;;;;;;;62.13;52.08;;;25.90;56.90;;;;;;4971590;27;95872;-68
2022/07/21 10:52:35;;;;;;;62.28;51.90;;;26.00;56.80;;;;;;4999689;27;95152;-68
2022/07/21 10:55:10;;;;;;;62.40;52.40;;;26.00;56.80;;;;;;4999205;27;96982;-69
2022/07/21 10:57:37;;;;;;;63.85;52.30;;;26.00;56.80;;;;;;4988938;27;95477;-68
2022/07/21 11:00:27;;;;;;;63.95;52.40;;;26.00;56.90;;;;;;4983033;27;101495;-68
2022/07/21 11:03:12;;;;;;;62.65;52.40;;;26.00;57.00;;;;;;4979353;27;95196;-67
2022/07/21 11:05:57;;;;;;;64.97;52.70;;;26.00;57.10;;;;;;4980952;27;100794;-68
2022/07/21 11:08:30;;;;;;;63.25;52.42;;;26.00;57.00;;;;;;4992117;27;95112;-68
2022/07/21 11:11:08;;;;;;;63.90;52.45;;;26.10;57.00;;;;;;4979302;27;96694;-69
2022/07/21 11:14:01;;;;;;;63.55;52.78;;;26.10;57.00;;;;;;5006618;27;95169;-67
2022/07/21 11:16:55;;;;;;;63.70;52.67;;;26.10;56.90;;;;;;4988497;27;95627;-67
2022/07/21 11:19:49;;;;;;;64.88;53.08;;;26.20;56.90;;;;;;4981924;27;99578;-68
2022/07/21 11:22:22;;;;;;;64.70;52.47;;;26.20;56.70;;;;;;4970271;27;95316;-68
2022/07/21 11:24:49;;;;;;;63.80;52.58;;;26.20;56.80;;;;;;4991411;27;100828;-68
2022/07/21 11:27:17;;;;;;;63.25;52.45;;;26.20;56.90;;;;;;4983476;27;95266;-67
2022/07/21 11:29:45;;;;;;;63.45;52.55;;;26.20;56.90;;;;;;4998602;27;94743;-68
2022/07/21 11:32:12;;;;;;;63.70;52.65;;;26.30;56.90;;;;;;4990744;27;94913;-69
2022/07/21 11:34:56;;;;;;;65.00;52.63;;;26.20;56.90;;;;;;4984468;27;99220;-68
2022/07/21 11:37:39;;;;;;;63.78;52.83;;;26.30;56.90;;;;;;4966957;27;98904;-68
2022/07/21 11:40:13;;;;;;;63.72;52.65;;;26.30;56.90;;;;;;4984034;27;98794;-67
2022/07/21 11:42:40;;;;;;;63.90;52.65;;;26.30;56.90;;;;;;5001396;27;97200;-68
2022/07/21 11:45:08;;;;;;;63.72;52.70;;;26.40;56.80;;;;;;4976826;27;95212;-68
2022/07/21 11:47:34;;;;;;;63.17;52.75;;;26.40;56.80;;;;;;4964936;27;96662;-68
2022/07/21 11:50:03;;;;;;;64.90;52.92;;;26.40;56.80;;;;;;4969219;27;96539;-68
2022/07/21 11:52:30;;;;;;;63.40;52.60;;;26.40;56.80;;;;;;4966654;27;96976;-68
2022/07/21 11:54:57;;;;;;;64.07;53.22;;;26.40;56.80;;;;;;4982326;27;94312;-68
2022/07/21 11:57:24;;;;;;;64.20;52.97;;;26.40;56.90;;;;;;4983095;27;102182;-68
2022/07/21 11:59:52;;;;;;;64.07;52.67;;;26.40;56.90;;;;;;4979669;27;104833;-68
2022/07/21 12:02:20;;;;;;;63.40;52.63;;;26.30;57.10;;;;;;4985589;27;96249;-69
2022/07/21 12:04:51;;;;;;;63.83;52.67;;;26.30;57.00;;;;;;4972702;27;98597;-68
2022/07/21 12:07:25;;;;;;;;;;;26.30;56.90;;;;;;4984184;27;96368;-68
2022/07/21 12:09:55;;;;;;;62.65;52.55;;;26.30;57.10;;;;;;5005759;27;95287;-68
2022/07/21 12:12:36;;;;;;;64.18;52.75;;;26.30;57.20;;;;;;5004801;27;96459;-68
2022/07/21 12:15:14;;;;;;;;;;;26.30;57.20;;;;;;4988917;27;94785;-68
2022/07/21 12:17:52;;;;;;;63.95;53.08;;;26.40;57.10;;;;;;4979969;27;97117;-68
2022/07/21 12:20:29;;;;;;;64.25;53.00;;;26.40;57.10;;;;;;4973166;27;95295;-68
2022/07/21 12:22:57;;;;;;;65.55;53.00;;;26.30;57.10;;;;;;4987998;27;96330;-68
2022/07/21 12:25:40;;;;;;;64.47;53.05;;;26.40;57.10;;;;;;4994213;27;96104;-68
2022/07/21 12:28:06;;;;;;;64.80;52.83;;;26.40;57.00;;;;;;4977503;27;97067;-69
2022/07/21 12:30:36;;;;;;;64.05;52.67;;;26.40;57.10;;;;;;4995095;27;95395;-68
2022/07/21 12:33:07;;;;;;;63.13;52.33;;;26.40;57.10;;;;;;4993746;27;94710;-69